Time;durP1;ratioP1;P1;durP2;ratioP2;P2;SDS_P1;SDS_P2;PMS_P1;PMS_P2;Temp;Humidity;BMP_temperature;BMP_pressure;BME280_temperature;BME280_humidity;BME280_pressure;Samples;Min_cycle;Max_cycle;Signal;HPM_P1;HPM_P2
2023/01/16 00:01:39;;;;;;;4.10;0.60;;;;;;;5.92;84.15;99476.09;5074473;28;20820;-69
2023/01/16 00:04:06;;;;;;;5.03;0.77;;;;;;;5.96;84.17;99482.47;5074369;28;20520;-69
2023/01/16 00:06:33;;;;;;;4.50;0.80;;;;;;;5.98;83.11;99477.63;5074273;28;20575;-69
2023/01/16 00:09:00;;;;;;;6.67;1.10;;;;;;;6.02;82.89;99474.03;5073946;28;20997;-69
2023/01/16 00:11:27;;;;;;;7.50;1.10;;;;;;;6.04;82.92;99481.78;5073918;28;20473;-69
2023/01/16 00:13:55;;;;;;;5.70;0.60;;;;;;;6.06;82.42;99476.91;5074211;28;20437;-70
2023/01/16 00:16:22;;;;;;;3.90;0.50;;;;;;;6.05;83.12;99478.00;5073681;28;20575;-69
2023/01/16 00:18:48;;;;;;;6.03;1.00;;;;;;;6.07;83.25;99473.16;5073796;28;20437;-69
2023/01/16 00:21:15;;;;;;;4.30;0.60;;;;;;;6.03;83.54;99470.25;5073905;28;20503;-69
2023/01/16 00:23:42;;;;;;;4.30;0.70;;;;;;;6.07;83.54;99473.16;5074254;28;20458;-70
2023/01/16 00:26:09;;;;;;;4.37;0.77;;;;;;;6.12;82.97;99470.34;5073921;28;20492;-69
2023/01/16 00:28:37;;;;;;;4.47;0.77;;;;;;;6.11;82.74;99474.13;5073941;28;20607;-70
2023/01/16 00:31:05;;;;;;;5.20;1.17;;;;;;;6.10;82.93;99474.41;5073958;28;20446;-71
2023/01/16 00:33:32;;;;;;;7.70;0.93;;;;;;;6.06;82.89;99475.03;5073973;28;20448;-69
2023/01/16 00:35:59;;;;;;;4.43;0.63;;;;;;;6.07;83.27;99471.25;5073841;28;20449;-71
2023/01/16 00:38:25;;;;;;;3.90;0.50;;;;;;;6.08;83.30;99472.03;5073800;28;20491;-70
2023/01/16 00:40:52;;;;;;;4.73;0.73;;;;;;;6.05;83.48;99468.03;5073764;28;20969;-70
2023/01/16 00:43:19;;;;;;;4.67;0.83;;;;;;;6.02;83.10;99462.47;5073739;28;20445;-70
2023/01/16 00:45:46;;;;;;;7.13;0.80;;;;;;;5.95;83.33;99464.75;5073652;28;20808;-70
2023/01/16 00:48:14;;;;;;;4.00;0.57;;;;;;;5.94;83.60;99463.19;5073340;28;20442;-69
2023/01/16 00:50:41;;;;;;;4.90;0.93;;;;;;;5.92;83.52;99468.03;5072936;28;20473;-70
2023/01/16 00:53:07;;;;;;;4.40;0.60;;;;;;;5.88;83.51;99462.44;5072860;28;20533;-69
2023/01/16 00:55:36;;;;;;;4.40;0.70;;;;;;;5.80;84.84;99465.81;5073402;28;20465;-70
2023/01/16 00:58:03;;;;;;;4.00;0.50;;;;;;;5.78;84.62;99473.38;5073442;28;20459;-70
2023/01/16 01:00:30;;;;;;;5.07;1.00;;;;;;;5.75;84.88;99474.75;5073120;28;20445;-70
2023/01/16 01:02:56;;;;;;;4.63;0.80;;;;;;;5.73;84.55;99476.94;5073352;28;20885;-70
2023/01/16 01:05:24;;;;;;;4.10;0.73;;;;;;;5.67;85.05;99472.78;5074724;28;20468;-70
2023/01/16 01:07:51;;;;;;;4.80;0.90;;;;;;;5.65;86.21;99477.63;5073046;28;20441;-69
2023/01/16 01:10:17;;;;;;;4.50;0.90;;;;;;;5.62;86.46;99475.50;5072955;28;20487;-70
2023/01/16 01:12:44;;;;;;;5.00;0.90;;;;;;;5.61;87.03;99470.44;5073617;28;20527;-70
2023/01/16 01:15:11;;;;;;;4.70;0.70;;;;;;;5.61;85.48;99473.94;5073134;28;20558;-70
2023/01/16 01:17:37;;;;;;;5.07;0.80;;;;;;;5.61;86.07;99471.25;5073196;28;20516;-70
2023/01/16 01:20:05;;;;;;;4.90;0.83;;;;;;;5.62;85.43;99472.84;5072893;28;20529;-70
2023/01/16 01:22:33;;;;;;;6.83;0.77;;;;;;;5.60;85.92;99474.22;5073143;28;20447;-70
2023/01/16 01:25:00;;;;;;;4.00;0.53;;;;;;;5.57;86.13;99468.34;5073033;28;20465;-70
2023/01/16 01:27:26;;;;;;;5.80;0.70;;;;;;;5.50;85.87;99467.16;5073036;28;20437;-70
2023/01/16 01:29:53;;;;;;;4.30;0.63;;;;;;;5.46;85.83;99466.16;5073280;28;20487;-69
2023/01/16 01:32:19;;;;;;;6.63;0.87;;;;;;;5.44;86.16;99471.78;5073006;28;20460;-70
2023/01/16 01:34:46;;;;;;;4.43;0.83;;;;;;;5.42;86.60;99471.31;5072947;28;20544;-69
2023/01/16 01:37:13;;;;;;;4.97;0.60;;;;;;;5.42;86.18;99465.13;5073004;28;20443;-69
2023/01/16 01:39:41;;;;;;;3.90;0.40;;;;;;;5.38;86.11;99464.13;5072981;28;20528;-69
2023/01/16 01:45:11;;;;;;;4.30;0.67;;;;;;;5.38;87.15;99459.56;5036376;28;20453;-69
2023/01/16 01:47:43;;;;;;;4.17;0.60;;;;;;;5.38;86.56;99453.38;5072876;28;20435;-69
2023/01/16 01:50:18;;;;;;;5.60;0.90;;;;;;;5.34;85.70;99447.81;5072826;28;20501;-69
2023/01/16 01:52:45;;;;;;;4.83;0.60;;;;;;;5.36;85.77;99447.50;5072871;28;20456;-69
2023/01/16 01:55:15;;;;;;;4.20;0.60;;;;;;;5.37;86.67;99451.81;5072720;28;20500;-70
2023/01/16 01:57:46;;;;;;;4.10;0.60;;;;;;;5.29;86.73;99456.75;5072768;28;20441;-69
2023/01/16 02:00:17;;;;;;;5.67;0.80;;;;;;;5.28;86.50;99454.38;5072664;28;20422;-69
2023/01/16 02:02:48;;;;;;;4.20;0.60;;;;;;;5.38;86.00;99456.06;5073289;28;20798;-69
2023/01/16 02:05:19;;;;;;;4.37;0.63;;;;;;;5.42;85.92;99454.41;5076626;28;20547;-70
2023/01/16 02:07:46;;;;;;;4.20;0.60;;;;;;;5.44;85.44;99458.38;5076658;28;20457;-69
2023/01/16 02:10:23;;;;;;;4.10;0.60;;;;;;;5.52;85.59;99457.69;5076239;28;20564;-70
2023/01/16 02:12:50;;;;;;;6.77;0.90;;;;;;;5.58;86.04;99450.38;5076766;28;20439;-69
2023/01/16 02:15:17;;;;;;;4.73;0.73;;;;;;;5.61;85.50;99452.44;5076165;28;20477;-69
2023/01/16 02:20:31;;;;;;;4.50;0.63;;;;;;;5.68;84.57;99447.50;5076464;28;20405;-69
2023/01/16 02:23:22;;;;;;;6.47;0.77;;;;;;;5.70;84.61;99434.53;5076354;28;20445;-68
2023/01/16 02:26:23;;;;;;;5.50;0.60;;;;;;;5.64;85.25;99434.94;5075941;28;21038;-68
2023/01/16 02:29:30;;;;;;;4.20;0.60;;;;;;;5.65;85.08;99433.84;5076573;28;20425;-69
2023/01/16 02:32:06;;;;;;;4.10;0.53;;;;;;;5.69;84.67;99438.34;5075920;28;20779;-69
2023/01/16 02:34:47;;;;;;;4.00;0.60;;;;;;;5.65;84.87;99421.22;5076158;28;20832;-69
2023/01/16 02:37:26;;;;;;;4.00;0.50;;;;;;;5.61;84.97;99422.91;5075821;28;20461;-69
2023/01/16 02:40:05;;;;;;;3.90;0.40;;;;;;;5.57;85.74;99411.16;5075826;28;20982;-70
2023/01/16 02:42:39;;;;;;;4.10;0.60;;;;;;;5.57;85.52;99416.53;5075678;28;20490;-70
2023/01/16 02:45:18;;;;;;;4.47;0.80;;;;;;;5.60;85.45;99407.88;5076212;28;20457;-70
2023/01/16 02:47:51;;;;;;;5.60;0.53;;;;;;;5.61;84.92;99406.78;5075656;28;20520;-70
2023/01/16 02:50:27;;;;;;;3.90;0.40;;;;;;;5.56;85.76;99401.50;5075839;28;20560;-69
2023/01/16 02:53:00;;;;;;;7.80;0.90;;;;;;;5.57;85.03;99405.78;5075590;28;20528;-70
2023/01/16 02:55:32;;;;;;;4.10;0.63;;;;;;;5.56;85.01;99394.25;5075483;28;21037;-70
2023/01/16 02:58:01;;;;;;;4.40;0.70;;;;;;;5.57;86.23;99393.13;5075839;28;20457;-69
2023/01/16 03:00:30;;;;;;;5.07;0.77;;;;;;;5.59;85.85;99392.06;5075708;28;20524;-70
2023/01/16 03:02:58;;;;;;;4.17;0.60;;;;;;;5.59;85.71;99394.75;5075810;28;20483;-69
2023/01/16 03:05:25;;;;;;;4.77;0.80;;;;;;;5.55;86.35;99397.22;5075842;28;20548;-70
2023/01/16 03:08:17;;;;;;;4.37;0.80;;;;;;;5.49;85.69;99385.81;5075725;28;20450;-70
2023/01/16 03:11:06;;;;;;;4.50;1.27;;;;;;;5.48;85.99;99394.13;5075535;28;20469;-69
2023/01/16 03:13:44;;;;;;;4.00;0.60;;;;;;;5.48;86.37;99386.06;5063059;28;20553;-70
2023/01/16 03:16:23;;;;;;;4.10;0.70;;;;;;;5.49;86.06;99388.47;5074347;28;20476;-70
2023/01/16 03:19:04;;;;;;;6.90;0.80;;;;;;;5.50;86.41;99383.91;5075527;28;20421;-70
2023/01/16 03:21:42;;;;;;;4.50;0.60;;;;;;;5.53;85.75;99378.75;5075363;28;20429;-69
2023/01/16 03:24:20;;;;;;;4.07;0.57;;;;;;;5.55;85.60;99373.06;5075369;28;20436;-70
2023/01/16 03:26:49;;;;;;;7.93;1.10;;;;;;;5.61;86.58;99376.44;5075308;28;20426;-69
2023/01/16 03:29:24;;;;;;;7.27;1.20;;;;;;;5.61;86.99;99377.22;5075030;28;20452;-69
2023/01/16 03:31:54;;;;;;;4.27;0.60;;;;;;;5.62;86.07;99362.69;5074924;28;20508;-70
2023/01/16 03:34:30;;;;;;;5.63;0.90;;;;;;;5.56;86.84;99363.91;5075163;28;20437;-69
2023/01/16 03:37:01;;;;;;;5.50;0.60;;;;;;;5.59;87.41;99360.63;5075106;28;20425;-70
2023/01/16 03:39:36;;;;;;;5.03;0.60;;;;;;;5.65;87.19;99361.31;5074964;28;20422;-69
2023/01/16 03:42:09;;;;;;;6.83;0.53;;;;;;;5.53;86.82;99362.63;5075012;28;20521;-70
2023/01/16 03:44:40;;;;;;;4.93;0.80;;;;;;;5.46;86.37;99359.53;5074570;28;20429;-69
2023/01/16 03:47:11;;;;;;;4.93;0.83;;;;;;;5.43;87.03;99357.44;5074851;28;20436;-70
2023/01/16 03:49:41;;;;;;;4.20;0.60;;;;;;;5.40;87.74;99360.72;5074799;28;20517;-70
2023/01/16 03:52:13;;;;;;;4.73;0.63;;;;;;;5.40;87.42;99355.34;5074480;28;20426;-69
2023/01/16 03:54:46;;;;;;;6.77;1.00;;;;;;;5.40;87.84;99349.16;5074417;28;20475;-69
2023/01/16 03:57:18;;;;;;;7.40;0.70;;;;;;;5.31;89.58;99351.72;5074741;28;20465;-70
2023/01/16 03:59:47;;;;;;;4.30;0.80;;;;;;;5.26;89.37;99344.56;5074297;28;20421;-70
2023/01/16 04:02:19;;;;;;;4.40;0.70;;;;;;;5.24;89.17;99341.41;5074259;28;20441;-69
2023/01/16 04:04:51;;;;;;;4.00;0.67;;;;;;;5.27;89.00;99334.66;5074182;28;20543;-69
2023/01/16 04:07:25;;;;;;;4.10;0.60;;;;;;;5.24;89.55;99336.03;5074494;28;20426;-70
2023/01/16 04:09:57;;;;;;;4.20;0.60;;;;;;;5.17;90.52;99335.63;5074066;28;20473;-70
2023/01/16 04:12:28;;;;;;;4.20;0.70;;;;;;;5.17;90.41;99340.97;5074360;28;20457;-70
2023/01/16 04:14:59;;;;;;;3.97;0.57;;;;;;;5.17;90.19;99321.41;5074181;28;20477;-71
2023/01/16 04:17:26;;;;;;;4.57;0.77;;;;;;;5.09;90.64;99328.28;5074531;28;20426;-71
2023/01/16 04:19:54;;;;;;;4.97;0.60;;;;;;;5.02;90.64;99314.44;5074210;28;20941;-71
2023/01/16 04:22:22;;;;;;;4.27;0.60;;;;;;;5.05;90.67;99314.63;5074120;28;20449;-70
2023/01/16 04:24:50;;;;;;;5.40;0.87;;;;;;;5.02;90.11;99304.47;5073800;28;20994;-71
2023/01/16 04:27:18;;;;;;;4.13;0.67;;;;;;;5.04;89.43;99304.19;5073846;28;20552;-70
2023/01/16 04:29:44;;;;;;;5.43;0.80;;;;;;;5.05;89.97;99295.06;5073571;28;20441;-70
2023/01/16 04:32:11;;;;;;;5.23;0.90;;;;;;;4.98;91.00;99294.63;5074198;28;20446;-70
2023/01/16 04:34:38;;;;;;;7.40;0.80;;;;;;;4.96;91.52;99286.09;5074027;28;20460;-70
2023/01/16 04:37:06;;;;;;;3.93;0.70;;;;;;;4.98;90.98;99289.28;5073778;28;20520;-70
2023/01/16 04:39:33;;;;;;;3.90;0.57;;;;;;;4.96;90.85;99281.53;5073709;28;20528;-70
2023/01/16 04:42:00;;;;;;;4.73;0.70;;;;;;;4.96;91.00;99280.75;5073650;28;20437;-70
2023/01/16 04:44:26;;;;;;;5.40;0.90;;;;;;;4.83;90.69;99271.56;5073257;28;20444;-70
2023/01/16 04:46:53;;;;;;;4.60;0.77;;;;;;;4.80;91.57;99262.22;5073577;28;20532;-70
2023/01/16 04:49:20;;;;;;;5.00;0.70;;;;;;;4.86;91.18;99264.81;5073398;28;20452;-70
2023/01/16 04:51:47;;;;;;;4.07;0.67;;;;;;;4.79;92.15;99259.84;5073136;28;21061;-70
2023/01/16 04:54:17;;;;;;;5.30;0.80;;;;;;;4.81;91.70;99260.31;5073493;28;20446;-70
2023/01/16 04:56:44;;;;;;;4.00;0.60;;;;;;;4.69;92.33;99263.50;5074050;28;20437;-70
2023/01/16 04:59:10;;;;;;;5.10;0.90;;;;;;;4.72;92.56;99262.88;5073491;28;20516;-70
2023/01/16 05:01:37;;;;;;;4.40;0.70;;;;;;;4.74;91.31;99259.94;5073434;28;20429;-73
2023/01/16 05:04:05;;;;;;;4.33;0.70;;;;;;;4.72;92.02;99264.78;5073395;28;20481;-70
2023/01/16 05:06:32;;;;;;;4.30;0.70;;;;;;;4.73;92.00;99256.44;5073251;28;20493;-69
2023/01/16 05:08:59;;;;;;;4.60;0.80;;;;;;;4.76;92.41;99258.53;5073298;28;20887;-70
2023/01/16 05:11:27;;;;;;;4.03;0.60;;;;;;;4.86;92.63;99256.75;5072938;28;20496;-69
2023/01/16 05:13:54;;;;;;;4.70;0.73;;;;;;;4.86;92.92;99252.19;5073297;28;20532;-70
2023/01/16 05:16:20;;;;;;;4.00;0.60;;;;;;;4.78;92.62;99253.69;5073051;28;20564;-69
2023/01/16 05:18:47;;;;;;;6.53;1.00;;;;;;;4.83;92.77;99252.00;5073167;28;20531;-70
2023/01/16 05:21:13;;;;;;;4.57;0.70;;;;;;;4.85;93.49;99247.13;5073186;28;20868;-70
2023/01/16 05:23:40;;;;;;;5.13;0.70;;;;;;;4.90;93.22;99244.34;5073194;28;20469;-70
2023/01/16 05:26:07;;;;;;;4.10;0.63;;;;;;;4.90;92.37;99241.66;5072779;28;20472;-70
2023/01/16 05:28:36;;;;;;;6.53;1.00;;;;;;;4.85;91.68;99242.56;5073024;28;20456;-70
2023/01/16 05:31:03;;;;;;;5.17;1.23;;;;;;;4.89;92.45;99240.06;5072973;28;20477;-69
2023/01/16 05:33:30;;;;;;;5.97;0.80;;;;;;;4.90;92.09;99234.41;5073005;28;20447;-70
2023/01/16 05:35:57;;;;;;;6.90;0.80;;;;;;;4.89;92.61;99234.72;5072901;28;20461;-70
2023/01/16 05:38:24;;;;;;;5.60;0.90;;;;;;;4.90;93.08;99229.03;5072129;28;20453;-69
2023/01/16 05:40:50;;;;;;;4.50;0.80;;;;;;;4.85;91.77;99237.19;5072625;28;20441;-70
2023/01/16 05:43:17;;;;;;;4.23;0.80;;;;;;;4.80;92.30;99229.22;5072974;28;20441;-69
2023/01/16 05:45:45;;;;;;;4.70;0.90;;;;;;;4.81;92.60;99228.94;5072902;28;20508;-70
2023/01/16 05:48:11;;;;;;;5.33;0.70;;;;;;;4.81;92.41;99225.44;5073152;28;20441;-70
2023/01/16 05:50:38;;;;;;;4.90;1.27;;;;;;;4.85;92.40;99222.97;5072495;28;20572;-66
2023/01/16 05:53:05;;;;;;;6.50;1.10;;;;;;;4.90;91.94;99229.03;5072652;28;20520;-67
2023/01/16 05:55:31;;;;;;;4.37;0.73;;;;;;;4.92;90.85;99223.41;5072802;28;20468;-67
2023/01/16 05:57:58;;;;;;;5.40;1.07;;;;;;;4.92;91.42;99216.13;5072833;28;20528;-67
2023/01/16 06:00:25;;;;;;;4.40;0.70;;;;;;;4.90;90.58;99222.88;5072581;28;20444;-67
2023/01/16 06:02:53;;;;;;;4.57;0.90;;;;;;;4.95;91.84;99209.38;5072559;28;20485;-67
2023/01/16 06:05:19;;;;;;;4.60;1.10;;;;;;;5.02;91.50;99209.78;5072736;28;20471;-74
2023/01/16 06:07:46;;;;;;;4.77;0.60;;;;;;;5.04;91.30;99211.06;5072804;28;20448;-70
2023/01/16 06:10:13;;;;;;;6.70;1.03;;;;;;;5.04;91.34;99207.56;5072948;28;20448;-70
2023/01/16 06:12:40;;;;;;;4.27;0.77;;;;;;;5.07;90.95;99196.25;5072427;28;20807;-69
2023/01/16 06:15:08;;;;;;;4.73;1.00;;;;;;;5.04;90.36;99191.47;5072695;28;20483;-69
2023/01/16 06:17:34;;;;;;;4.40;0.70;;;;;;;5.06;90.37;99195.47;5072618;28;20465;-69
2023/01/16 06:20:02;;;;;;;4.47;0.83;;;;;;;5.01;90.87;99194.78;5072364;28;20481;-69
2023/01/16 06:22:29;;;;;;;4.10;0.80;;;;;;;5.04;91.15;99194.16;5072295;28;20473;-69
2023/01/16 06:24:55;;;;;;;4.20;0.80;;;;;;;5.09;91.18;99186.03;5072504;28;20464;-69
2023/01/16 06:27:22;;;;;;;6.23;0.93;;;;;;;5.07;91.22;99188.22;5072536;28;20469;-69
2023/01/16 06:29:48;;;;;;;5.90;1.20;;;;;;;4.95;90.66;99188.69;5072505;28;20444;-70
2023/01/16 06:32:16;;;;;;;4.20;0.70;;;;;;;4.96;89.56;99184.16;5072443;28;20481;-69
2023/01/16 06:34:42;;;;;;;4.50;0.80;;;;;;;4.98;90.19;99187.31;5072523;28;20461;-69
2023/01/16 06:37:10;;;;;;;5.60;0.73;;;;;;;5.02;89.94;99177.56;5072517;28;20445;-69
2023/01/16 06:39:37;;;;;;;6.17;1.10;;;;;;;4.96;90.15;99179.56;5072427;28;20452;-69
2023/01/16 06:42:04;;;;;;;8.50;1.20;;;;;;;5.05;89.80;99177.78;5072076;28;20528;-69
2023/01/16 06:44:31;;;;;;;5.37;0.77;;;;;;;5.05;89.84;99180.47;5072381;28;20970;-69
2023/01/16 06:46:58;;;;;;;5.83;1.17;;;;;;;5.07;90.24;99182.84;5072437;28;20441;-69
2023/01/16 06:49:24;;;;;;;7.10;0.73;;;;;;;5.04;89.25;99180.75;5072048;28;20938;-69
2023/01/16 06:51:51;;;;;;;4.33;0.80;;;;;;;5.04;89.46;99178.06;5075889;28;20520;-69
2023/01/16 06:54:19;;;;;;;4.20;0.70;;;;;;;4.96;89.49;99170.72;5075890;28;20451;-69
2023/01/16 06:56:45;;;;;;;6.50;1.03;;;;;;;4.98;90.14;99172.00;5075843;28;20444;-69
2023/01/16 06:59:12;;;;;;;6.70;1.07;;;;;;;5.08;89.77;99176.38;5076169;28;20448;-69
2023/01/16 07:01:38;;;;;;;4.37;0.90;;;;;;;5.03;89.55;99173.78;5075398;28;20520;-69
2023/01/16 07:04:06;;;;;;;4.27;1.00;;;;;;;5.11;89.55;99172.31;5075434;28;20810;-69
2023/01/16 07:06:33;;;;;;;4.70;0.80;;;;;;;5.09;89.55;99169.94;5076936;28;20469;-69
2023/01/16 07:08:59;;;;;;;4.57;1.00;;;;;;;5.07;89.67;99156.00;5075569;28;20818;-69
2023/01/16 07:11:27;;;;;;;4.47;0.80;;;;;;;5.04;89.59;99159.28;5075202;28;20948;-67
2023/01/16 07:22:34;;;;;;;13.03;1.17;;;;;;;5.00;89.19;99159.09;5075358;28;20540;-70
2023/01/16 07:24:57;;;;;;;5.83;0.90;;;;;;;4.92;89.58;99159.00;5075497;28;20476;-70
2023/01/16 07:27:25;;;;;;;5.80;1.10;;;;;;;4.93;89.70;99157.91;5075193;28;20469;-69
2023/01/16 07:29:53;;;;;;;6.53;0.90;;;;;;;4.94;89.54;99154.91;5075232;28;20437;-69
2023/01/16 07:32:20;;;;;;;4.60;0.70;;;;;;;4.92;91.02;99150.97;5075055;28;20925;-69
2023/01/16 07:34:47;;;;;;;4.23;0.70;;;;;;;4.89;91.43;99151.53;5074806;28;20465;-69
2023/01/16 07:37:14;;;;;;;6.10;1.10;;;;;;;4.86;90.64;99152.91;5075055;28;20523;-69
2023/01/16 07:39:40;;;;;;;14.53;1.37;;;;;;;4.88;90.81;99149.97;5075045;28;20821;-69
2023/01/16 07:42:08;;;;;;;5.80;1.40;;;;;;;4.91;89.51;99150.13;5074880;28;20445;-69
2023/01/16 07:44:36;;;;;;;5.97;1.13;;;;;;;4.95;89.88;99145.75;5074579;28;20973;-69
2023/01/16 07:47:03;;;;;;;5.80;1.00;;;;;;;4.96;90.35;99133.97;5074851;28;20489;-69
2023/01/16 07:49:29;;;;;;;6.50;1.30;;;;;;;4.98;90.07;99130.97;5075032;28;20437;-69
2023/01/16 07:51:56;;;;;;;4.67;1.00;;;;;;;5.04;89.61;99129.75;5075037;28;20485;-69
2023/01/16 07:54:23;;;;;;;5.80;1.03;;;;;;;5.08;89.83;99128.06;5074670;28;20452;-69
2023/01/16 07:56:50;;;;;;;6.20;1.30;;;;;;;5.09;89.55;99127.00;5074364;28;20452;-69
2023/01/16 07:59:16;;;;;;;3.90;0.50;;;;;;;5.09;89.23;99118.94;5074709;28;20445;-69
2023/01/16 08:01:45;;;;;;;8.50;1.30;;;;;;;5.03;88.82;99120.91;5073830;28;20886;-70
2023/01/16 08:04:12;;;;;;;6.20;1.20;;;;;;;5.05;88.57;99117.94;5074637;28;20445;-71
2023/01/16 08:06:42;;;;;;;4.47;0.73;;;;;;;5.02;87.93;99113.97;5074455;28;20548;-71
2023/01/16 08:09:09;;;;;;;5.00;0.90;;;;;;;5.05;88.41;99112.59;5074530;28;20520;-72
2023/01/16 08:11:36;;;;;;;6.60;1.30;;;;;;;4.91;87.40;99115.25;5074340;28;20473;-70
2023/01/16 08:14:04;;;;;;;5.37;1.37;;;;;;;4.86;88.24;99104.63;5074142;28;20449;-71
2023/01/16 08:16:30;;;;;;;4.30;0.70;;;;;;;4.87;88.48;99102.75;5074160;28;20560;-71
2023/01/16 08:19:00;;;;;;;5.73;0.93;;;;;;;4.89;88.98;99087.16;5074330;28;20438;-71
2023/01/16 08:21:27;;;;;;;4.30;0.93;;;;;;;4.95;88.46;99097.47;5074186;28;20475;-71
2023/01/16 08:23:53;;;;;;;8.97;1.60;;;;;;;5.02;87.18;99086.34;5074216;28;20450;-72
2023/01/16 08:26:20;;;;;;;4.47;0.90;;;;;;;5.05;87.83;99085.75;5074104;28;20560;-70
2023/01/16 08:28:46;;;;;;;6.53;1.20;;;;;;;5.19;87.25;99081.16;5073771;28;20484;-70
2023/01/16 08:31:15;;;;;;;5.43;1.37;;;;;;;5.30;86.90;99082.50;5073634;28;20477;-70
2023/01/16 08:33:43;;;;;;;7.57;1.37;;;;;;;5.38;87.33;99078.28;5074022;28;20821;-71
2023/01/16 08:36:13;;;;;;;5.60;1.17;;;;;;;5.36;87.27;99069.75;5073772;28;20547;-71
2023/01/16 08:38:40;;;;;;;7.00;0.67;;;;;;;5.44;87.08;99069.00;5073510;28;20529;-70
2023/01/16 08:51:21;;;;;;;5.07;1.40;;;;;;;5.51;86.53;99064.03;5073521;28;20520;-70
2023/01/16 08:52:08;;;;;;;4.87;1.10;;;;;;;5.88;82.78;99037.06;5073479;28;20491;-71
2023/01/16 08:54:35;;;;;;;5.10;0.80;;;;;;;5.99;81.53;99030.38;5073494;28;20492;-70
2023/01/16 08:57:02;;;;;;;5.40;1.30;;;;;;;5.98;81.45;99026.91;5073236;28;21014;-71
2023/01/16 08:59:32;;;;;;;5.50;1.27;;;;;;;5.82;80.83;99023.78;5073358;28;20441;-71
2023/01/16 09:02:00;;;;;;;4.83;1.03;;;;;;;5.74;82.28;99013.78;5073395;28;20422;-70
2023/01/16 09:04:26;;;;;;;3.97;0.50;;;;;;;5.72;81.41;99009.81;5073005;28;20445;-71
2023/01/16 09:06:53;;;;;;;4.60;0.97;;;;;;;5.70;82.09;99009.31;5073504;28;20532;-71
2023/01/16 09:09:21;;;;;;;5.03;0.87;;;;;;;5.67;81.68;99001.91;5073581;28;20446;-70
2023/01/16 09:14:39;;;;;;;5.60;0.87;;;;;;;5.67;82.98;98991.94;5072965;28;20463;-73
2023/01/16 09:17:06;;;;;;;9.17;0.87;;;;;;;5.71;82.89;98990.22;5073262;28;21052;-70
2023/01/16 09:19:33;;;;;;;5.97;1.03;;;;;;;5.67;82.94;98985.78;5073168;28;20445;-70
2023/01/16 09:22:00;;;;;;;8.90;1.00;;;;;;;5.66;82.30;98992.22;5072328;28;20444;-71
2023/01/16 09:24:28;;;;;;;4.10;0.70;;;;;;;5.70;81.72;98987.81;5072051;28;20476;-71
2023/01/16 09:26:55;;;;;;;5.23;1.00;;;;;;;5.75;82.45;98976.94;5072188;28;20957;-71
2023/01/16 09:29:21;;;;;;;4.20;0.60;;;;;;;5.79;81.84;98969.84;5072136;28;20946;-71
2023/01/16 09:31:48;;;;;;;4.93;0.93;;;;;;;5.81;81.12;98967.69;5072434;28;20503;-70
2023/01/16 09:34:14;;;;;;;5.30;0.80;;;;;;;5.82;81.03;98970.03;5072340;28;20441;-72
2023/01/16 09:36:41;;;;;;;4.60;0.80;;;;;;;5.82;80.77;98970.03;5072354;28;20556;-71
2023/01/16 09:39:07;;;;;;;6.33;1.10;;;;;;;5.79;80.34;98959.91;5072117;28;20528;-71
2023/01/16 09:44:30;;;;;;;4.93;1.30;;;;;;;5.77;80.22;98954.06;5072313;28;20405;-70
2023/01/16 09:47:00;;;;;;;5.80;0.80;;;;;;;5.83;81.59;98954.72;5072319;28;20531;-72
2023/01/16 09:49:30;;;;;;;4.20;0.70;;;;;;;5.87;81.17;98946.81;5072417;28;20443;-71
2023/01/16 10:00:27;;;;;;;4.40;0.70;;;;;;;5.89;80.66;98934.69;5072078;28;20910;-72
2023/01/16 10:02:54;;;;;;;4.43;0.63;;;;;;;5.99;81.13;98920.97;5071967;28;20533;-68
2023/01/16 10:05:25;;;;;;;4.00;0.60;;;;;;;6.05;80.49;98921.63;5072134;28;20468;-67
2023/01/16 10:07:59;;;;;;;4.10;0.60;;;;;;;6.07;81.16;98911.38;5071886;28;20974;-68
2023/01/16 10:10:44;;;;;;;4.00;0.60;;;;;;;6.15;79.24;98901.72;5072129;28;20782;-68
2023/01/16 10:13:26;;;;;;;4.50;0.90;;;;;;;6.16;79.43;98904.13;5072183;28;20566;-68
2023/01/16 10:16:03;;;;;;;4.53;0.80;;;;;;;6.20;79.38;98894.31;5071652;28;20483;-68
2023/01/16 10:18:40;;;;;;;6.33;0.50;;;;;;;6.24;78.88;98894.47;5072091;28;20433;-67
2023/01/16 10:21:30;;;;;;;4.50;0.60;;;;;;;6.28;78.93;98885.47;5071744;28;20998;-67
2023/01/16 10:24:02;;;;;;;4.00;0.50;;;;;;;6.35;77.76;98886.91;5072880;28;20519;-69
2023/01/16 10:26:30;;;;;;;4.70;0.80;;;;;;;6.36;78.20;98877.72;5075469;28;20453;-68
2023/01/16 10:29:20;;;;;;;5.30;0.83;;;;;;;6.41;77.99;98882.94;5075680;28;20445;-67
2023/01/16 10:31:51;;;;;;;7.00;0.80;;;;;;;6.48;77.14;98869.84;5075632;28;20483;-67
2023/01/16 10:34:22;;;;;;;5.00;0.83;;;;;;;6.54;76.32;98865.88;5075561;28;20421;-68
2023/01/16 10:36:54;;;;;;;4.67;0.90;;;;;;;6.62;76.49;98865.09;5075669;28;20513;-67
2023/01/16 10:39:22;;;;;;;4.30;0.80;;;;;;;6.70;77.04;98850.84;5075240;28;20433;-67
2023/01/16 10:50:09;;;;;;;4.50;0.77;;;;;;;6.86;74.85;98828.81;5075044;28;20417;-68
2023/01/16 10:52:37;;;;;;;4.10;0.60;;;;;;;6.88;75.23;98826.59;5074885;28;20542;-68
2023/01/16 10:55:05;;;;;;;4.30;0.50;;;;;;;6.87;74.66;98825.81;5075113;28;20461;-68
2023/01/16 10:57:31;;;;;;;5.33;1.00;;;;;;;6.92;73.51;98822.16;5075118;28;20524;-68
2023/01/16 11:00:04;;;;;;;4.23;0.57;;;;;;;7.01;74.08;98814.84;5074822;28;20449;-68
2023/01/16 11:02:34;;;;;;;4.80;0.70;;;;;;;7.02;73.24;98805.66;5074772;28;20421;-68
2023/01/16 11:05:02;;;;;;;4.23;0.63;;;;;;;7.06;72.04;98802.00;5074902;28;20493;-68
2023/01/16 11:07:30;;;;;;;5.07;0.70;;;;;;;7.18;72.20;98804.03;5074699;28;20495;-68
2023/01/16 11:09:59;;;;;;;5.60;0.90;;;;;;;7.25;71.21;98790.84;5074787;28;20464;-68
2023/01/16 11:20:49;;;;;;;8.80;0.80;;;;;;;7.64;69.51;98770.06;5074372;28;20405;-68
2023/01/16 11:23:19;;;;;;;4.60;0.73;;;;;;;7.62;68.96;98760.75;5074172;28;20799;-71
2023/01/16 11:25:48;;;;;;;5.63;0.97;;;;;;;7.68;68.70;98759.44;5074651;28;20453;-70
2023/01/16 11:28:19;;;;;;;6.10;0.73;;;;;;;7.72;67.38;98752.28;5074999;28;20438;-71
2023/01/16 11:30:49;;;;;;;5.23;0.60;;;;;;;7.73;68.59;98745.75;5074853;28;20499;-71
2023/01/16 11:33:18;;;;;;;5.87;0.90;;;;;;;7.77;67.79;98733.22;5074693;28;20559;-71
2023/01/16 11:35:53;;;;;;;4.40;0.60;;;;;;;7.85;67.66;98729.69;5073733;28;20545;-72
2023/01/16 11:38:19;;;;;;;3.90;0.50;;;;;;;7.96;66.81;98719.28;5074683;28;20417;-72
2023/01/16 11:40:48;;;;;;;4.00;0.70;;;;;;;8.06;66.02;98714.28;5074171;28;20441;-71
2023/01/16 11:46:11;;;;;;;3.90;0.60;;;;;;;8.27;65.27;98703.44;5074438;28;20479;-71
2023/01/16 11:48:40;;;;;;;4.97;0.70;;;;;;;8.80;63.85;98699.13;5074391;28;20510;-71
2023/01/16 11:51:12;;;;;;;5.50;0.90;;;;;;;9.86;60.31;98691.94;5073917;28;20960;-70
2023/01/16 11:53:39;;;;;;;4.40;0.63;;;;;;;10.54;55.88;98691.91;5073787;28;20989;-71
2023/01/16 11:56:26;;;;;;;4.10;0.70;;;;;;;11.19;55.18;98688.84;5074050;28;20915;-71
2023/01/16 11:59:07;;;;;;;7.57;1.00;;;;;;;11.44;53.20;98686.72;5061124;28;20454;-71
2023/01/16 12:04:34;;;;;;;4.87;0.93;;;;;;;11.99;52.12;98667.75;5073761;28;20499;-71
2023/01/16 12:07:09;;;;;;;4.13;0.80;;;;;;;12.72;51.25;98666.00;5073799;28;20437;-71
2023/01/16 12:09:48;;;;;;;3.70;0.40;;;;;;;13.08;48.82;98665.41;5074225;28;20449;-71
2023/01/16 12:15:19;;;;;;;5.40;0.90;;;;;;;12.98;49.33;98643.53;5073711;28;20842;-71
2023/01/16 12:18:04;;;;;;;10.03;0.70;;;;;;;12.71;48.10;98638.06;5073605;28;20482;-71
2023/01/16 12:20:40;;;;;;;5.03;0.60;;;;;;;12.59;49.66;98630.88;5073696;28;20847;-71
2023/01/16 12:23:32;;;;;;;7.23;0.93;;;;;;;12.91;49.50;98622.44;5073325;28;20587;-71
2023/01/16 12:26:09;;;;;;;5.00;0.80;;;;;;;12.93;47.88;98635.69;5073455;28;20470;-70
2023/01/16 12:28:46;;;;;;;4.50;0.80;;;;;;;12.94;48.38;98619.00;5073537;28;20430;-71
2023/01/16 12:31:35;;;;;;;5.13;0.90;;;;;;;12.73;46.99;98613.22;5073763;28;20433;-71
2023/01/16 12:34:17;;;;;;;4.00;0.60;;;;;;;12.76;48.71;98601.66;5073122;28;20491;-70
2023/01/16 12:36:58;;;;;;;4.00;0.70;;;;;;;12.69;47.90;98602.31;5073424;28;20571;-70
2023/01/16 12:39:35;;;;;;;4.40;0.67;;;;;;;12.80;47.96;98595.13;5073345;28;20434;-70
2023/01/16 12:45:15;;;;;;;4.23;0.80;;;;;;;12.70;48.55;98570.50;5073088;28;20448;-70
2023/01/16 12:47:55;;;;;;;4.00;0.60;;;;;;;12.80;48.15;98551.66;5073253;28;20430;-71
2023/01/16 12:50:40;;;;;;;4.80;0.77;;;;;;;12.93;48.26;98546.00;5072852;28;20453;-69
2023/01/16 12:53:23;;;;;;;3.97;0.57;;;;;;;13.11;46.70;98541.59;5072626;28;21031;-72
2023/01/16 12:55:58;;;;;;;4.50;0.90;;;;;;;13.01;47.48;98523.97;5072630;28;20526;-70
2023/01/16 12:58:30;;;;;;;4.40;0.70;;;;;;;12.78;47.53;98526.75;5072848;28;20523;-71
2023/01/16 13:01:12;;;;;;;4.20;0.70;;;;;;;12.65;48.13;98522.69;5072529;28;20416;-70